| time (UTC) | temp C | wind direction | speed KPH | gust KPH | rain 1hr cm | rain 24hr cm | rain mn cm | humidity % | barometer mb |
| 20260507110543 | 9 | 317 | 1.6 | 6.4 | 0.00 | 0.00 | 0.00 | 87 | 1021.5 |
| 20260507110238 | 9 | 312 | 4.8 | 6.4 | 0.00 | 0.00 | 0.00 | 87 | 1021.7 |
| 20260507110009 | 9 | 281 | 0.0 | 6.4 | 0.00 | 0.00 | 0.00 | 87 | 1021.5 |
| 20260507105719 | 9 | 281 | 3.2 | 6.4 | 0.00 | 0.00 | 0.00 | 87 | 1021.7 |
| 20260507105546 | 9 | 301 | 3.2 | 6.4 | 0.00 | 0.00 | 0.00 | 87 | 1021.5 |
| 20260507105220 | 10 | 284 | 3.2 | 4.8 | 0.00 | 0.00 | 0.00 | 87 | 1021.7 |
| 20260507105028 | 9 | 318 | 1.6 | 4.8 | 0.00 | 0.00 | 0.00 | 87 | 1021.6 |
| 20260507104729 | 10 | 269 | 1.6 | 4.8 | 0.00 | 0.00 | 0.00 | 87 | 1021.6 |
| 20260507104503 | 9 | 242 | 1.6 | 4.8 | 0.00 | 0.00 | 0.00 | 87 | 1021.7 |
| 20260507104224 | 10 | 278 | 3.2 | 4.8 | 0.00 | 0.00 | 0.00 | 87 | 1021.7 |
| 20260507104046 | 9 | 261 | 1.6 | 4.8 | 0.00 | 0.00 | 0.00 | 87 | 1021.6 |
| 20260507103727 | 10 | 272 | 526.3 | 526.3 | 0.00 | 0.00 | 0.00 | 88 | 1021.5 |
| 20260507103520 | 9 | 267 | 0.0 | 4.8 | 0.00 | 0.00 | 0.00 | 88 | 1021.7 |
| 20260507103224 | 10 | 267 | 1.6 | 4.8 | 0.00 | 0.00 | 0.00 | 88 | 1021.8 |
| 20260507103058 | 9 | 267 | 1.6 | 4.8 | 0.00 | 0.00 | 0.00 | 88 | 1021.7 |
| 20260507102727 | 10 | 269 | 1.6 | 4.8 | 0.00 | 0.00 | 0.00 | 88 | 1021.8 |
| 20260507102543 | 10 | 269 | 0.0 | 3.2 | 0.00 | 0.00 | 0.00 | 88 | 1021.7 |
| 20260507102021 | 10 | 269 | 0.0 | 3.2 | 0.00 | 0.00 | 0.00 | 88 | 1021.8 |
| 20260507101731 | 10 | 269 | 0.0 | 4.8 | 0.00 | 0.00 | 0.00 | 88 | 1021.9 |
| 20260507101501 | 10 | 269 | 0.0 | 4.8 | 0.00 | 0.00 | 0.00 | 88 | 1021.7 |
| 20260507101212 | 10 | 269 | 1.6 | 4.8 | 0.00 | 0.00 | 0.00 | 88 | 1021.9 |
| 20260507101045 | 10 | 269 | 1.6 | 4.8 | 0.00 | 0.00 | 0.00 | 88 | 1021.7 |
| 20260507100714 | 10 | 270 | 1.6 | 3.2 | 0.00 | 0.00 | 0.00 | 88 | 1021.8 |
| 20260507100525 | 10 | 270 | 0.0 | 3.2 | 0.00 | 0.00 | 0.00 | 88 | 1021.8 |
| 20260507100222 | 10 | 270 | 1.6 | 3.2 | 0.00 | 0.00 | 0.00 | 88 | 1021.9 |
| 20260507100007 | 10 | 270 | 0.0 | 3.2 | 0.00 | 0.00 | 0.00 | 89 | 1021.9 |
| 20260507095744 | 10 | 270 | 1.6 | 3.2 | 0.00 | 0.00 | 0.00 | 89 | 1022.0 |
| 20260507095530 | 10 | 270 | 1.6 | 3.2 | 0.00 | 0.00 | 0.00 | 89 | 1021.9 |
| 20260507095231 | 10 | 271 | 0.0 | 3.2 | 0.00 | 0.00 | 0.00 | 89 | 1022.0 |
| 20260507095056 | 10 | 271 | 0.0 | 3.2 | 0.00 | 0.00 | 0.00 | 89 | 1021.9 |
| 20260507094712 | 10 | 271 | 1.6 | 4.8 | 0.00 | 0.00 | 0.00 | 89 | 1022.0 |
| 20260507094535 | 10 | 271 | 0.0 | 4.8 | 0.00 | 0.00 | 0.00 | 89 | 1022.0 |
| 20260507094213 | 10 | 271 | 1.6 | 4.8 | 0.00 | 0.00 | 0.00 | 89 | 1022.1 |
| 20260507094014 | 10 | 271 | 0.0 | 3.2 | 0.00 | 0.00 | 0.00 | 89 | 1021.9 |
| 20260507093721 | 10 | 271 | 0.0 | 3.2 | 0.00 | 0.00 | 0.00 | 89 | 1022.0 |
| 20260507093558 | 10 | 271 | 0.0 | 3.2 | 0.00 | 0.00 | 0.00 | 89 | 1022.0 |
| 20260507093243 | 10 | 271 | 1.6 | 3.2 | 0.00 | 0.00 | 0.00 | 89 | 1022.2 |
| 20260507093019 | 10 | 271 | 1.6 | 3.2 | 0.00 | 0.00 | 0.00 | 89 | 1022.1 |
| 20260507092731 | 10 | 271 | 1.6 | 3.2 | 0.00 | 0.00 | 0.00 | 89 | 1022.2 |
| 20260507092603 | 10 | 271 | 0.0 | 3.2 | 0.00 | 0.00 | 0.00 | 89 | 1022.1 |
| 20260507092212 | 10 | 271 | 0.0 | 4.8 | 0.00 | 0.00 | 0.00 | 89 | 1022.4 |
| 20260507092044 | 10 | 271 | 1.6 | 4.8 | 0.00 | 0.00 | 0.00 | 89 | 1022.2 |
| 20260507091714 | 10 | 296 | 1.6 | 4.8 | 0.00 | 0.00 | 0.00 | 89 | 1022.3 |
| 20260507091527 | 10 | 309 | 1.6 | 3.2 | 0.00 | 0.00 | 0.00 | 89 | 1022.3 |
| 20260507091222 | 10 | 311 | 1.6 | 3.2 | 0.00 | 0.00 | 0.00 | 89 | 1022.4 |
| 20260507091007 | 10 | 311 | 0.0 | 3.2 | 0.00 | 0.00 | 0.00 | 89 | 1022.2 |
| 20260507090723 | 10 | 311 | 1.6 | 3.2 | 0.00 | 0.00 | 0.00 | 88 | 1022.3 |
| 20260507090550 | 10 | 311 | 0.0 | 3.2 | 0.00 | 0.00 | 0.00 | 88 | 1022.2 |
| 20260507090225 | 10 | 311 | 1.6 | 3.2 | 0.00 | 0.00 | 0.00 | 88 | 1022.4 |
| 20260507090032 | 10 | 311 | 1.6 | 3.2 | 0.00 | 0.00 | 0.00 | 88 | 1022.2 |
| 20260507085733 | 10 | 311 | 0.0 | 1.6 | 0.00 | 0.00 | 0.00 | 89 | 1022.4 |
| 20260507085514 | 10 | 311 | 0.0 | 3.2 | 0.00 | 0.00 | 0.00 | 88 | 1022.2 |
| 20260507085215 | 10 | 311 | 0.0 | 3.2 | 0.00 | 0.00 | 0.00 | 89 | 1022.3 |
| 20260507085057 | 10 | 311 | 0.0 | 3.2 | 0.00 | 0.00 | 0.00 | 89 | 1022.3 |
| 20260507084716 | 10 | 311 | 1.6 | 3.2 | 0.00 | 0.00 | 0.00 | 88 | 1022.4 |
| 20260507084538 | 10 | 311 | 1.6 | 3.2 | 0.00 | 0.00 | 0.00 | 88 | 1022.3 |
| 20260507084245 | 10 | 311 | 1.6 | 3.2 | 0.00 | 0.00 | 0.00 | 88 | 1022.4 |
| 20260507084100 | 10 | 311 | 0.0 | 3.2 | 0.00 | 0.00 | 0.00 | 88 | 1022.3 |
| 20260507083725 | 10 | 313 | 1.6 | 3.2 | 0.00 | 0.00 | 0.00 | 88 | 1022.4 |
| 20260507083542 | 10 | 273 | 0.0 | 3.2 | 0.00 | 0.00 | 0.00 | 88 | 1022.3 |
| 20260507083226 | 10 | 273 | 1.6 | 3.2 | 0.00 | 0.00 | 0.00 | 88 | 1022.4 |
| 20260507083023 | 10 | 273 | 0.0 | 3.2 | 0.00 | 0.00 | 0.00 | 88 | 1022.2 |
| 20260507082735 | 10 | 273 | 1.6 | 6.4 | 0.00 | 0.00 | 0.00 | 88 | 1022.4 |
| 20260507082508 | 10 | 273 | 0.0 | 6.4 | 0.00 | 0.00 | 0.00 | 88 | 1022.3 |
| 20260507082216 | 10 | 273 | 3.2 | 6.4 | 0.00 | 0.00 | 0.00 | 88 | 1022.4 |
| 20260507082048 | 10 | 273 | 3.2 | 6.4 | 0.00 | 0.00 | 0.00 | 88 | 1022.3 |
| 20260507081745 | 10 | 308 | 1.6 | 8.0 | 0.00 | 0.00 | 0.00 | 87 | 1022.5 |
| 20260507081509 | 10 | 315 | 3.2 | 8.0 | 0.00 | 0.00 | 0.00 | 88 | 1022.4 |
| 20260507081224 | 10 | 315 | 3.2 | 8.0 | 0.00 | 0.00 | 0.00 | 88 | 1022.4 |
| 20260507081032 | 10 | 321 | 3.2 | 9.7 | 0.00 | 0.00 | 0.00 | 88 | 1022.4 |
| 20260507080750 | 10 | 308 | 3.2 | 9.7 | 0.00 | 0.00 | 0.00 | 88 | 1022.4 |
| 20260507080552 | 10 | 267 | 3.2 | 9.7 | 0.00 | 0.00 | 0.00 | 88 | 1022.2 |
| 20260507080210 | 10 | 320 | 1.6 | 3.2 | 0.00 | 0.00 | 0.00 | 88 | 1022.4 |
| 20260507080036 | 10 | 325 | 0.0 | 3.2 | 0.00 | 0.00 | 0.00 | 88 | 1022.2 |
| 20260507075712 | 10 | 325 | 3.2 | 3.2 | 0.00 | 0.00 | 0.00 | 88 | 1022.4 |
| 20260507075513 | 10 | 326 | 0.0 | 4.8 | 0.00 | 0.00 | 0.00 | 88 | 1022.2 |
| 20260507075220 | 11 | 326 | 0.0 | 4.8 | 0.00 | 0.00 | 0.00 | 88 | 1022.4 |
| 20260507075057 | 10 | 326 | 0.0 | 4.8 | 0.00 | 0.00 | 0.00 | 88 | 1022.2 |
| 20260507074722 | 11 | 326 | 1.6 | 4.8 | 0.00 | 0.00 | 0.00 | 88 | 1022.4 |
| 20260507074539 | 10 | 287 | 0.0 | 3.2 | 0.00 | 0.00 | 0.00 | 88 | 1022.3 |
| 20260507074223 | 11 | 287 | 1.6 | 3.2 | 0.00 | 0.00 | 0.00 | 87 | 1022.4 |
| 20260507074021 | 10 | 287 | 0.0 | 3.2 | 0.00 | 0.00 | 0.00 | 87 | 1022.2 |
| 20260507073713 | 11 | 287 | 1.6 | 3.2 | 0.00 | 0.00 | 0.00 | 87 | 1022.4 |
| 20260507073602 | 10 | 291 | 0.0 | 3.2 | 0.00 | 0.00 | 0.00 | 87 | 1022.3 |
| 20260507073213 | 11 | 291 | 1.6 | 3.2 | 0.00 | 0.00 | 0.00 | 87 | 1022.3 |
| 20260507073057 | 10 | 291 | 0.0 | 4.8 | 0.00 | 0.00 | 0.00 | 87 | 1022.3 |
| 20260507072714 | 11 | 291 | 1.6 | 6.4 | 0.00 | 0.00 | 0.00 | 87 | 1022.3 |
| 20260507072525 | 10 | 291 | 0.0 | 6.4 | 0.00 | 0.00 | 0.00 | 87 | 1022.2 |
| 20260507072223 | 11 | 333 | 3.2 | 6.4 | 0.00 | 0.00 | 0.00 | 87 | 1022.3 |
| 20260507072006 | 10 | 342 | 4.8 | 6.4 | 0.00 | 0.00 | 0.00 | 87 | 1022.2 |
| 20260507071744 | 11 | 304 | 1.6 | 6.4 | 0.00 | 0.00 | 0.00 | 87 | 1022.3 |
| 20260507071534 | 10 | 304 | 1.6 | 6.4 | 0.00 | 0.00 | 0.00 | 87 | 1022.1 |
| 20260507071232 | 11 | 311 | 3.2 | 6.4 | 0.00 | 0.00 | 0.00 | 87 | 1022.3 |
| 20260507071007 | 10 | 323 | 3.2 | 6.4 | 0.00 | 0.00 | 0.00 | 87 | 1022.1 |
| 20260507070710 | 11 | 326 | 3.2 | 6.4 | 0.00 | 0.00 | 0.00 | 87 | 1022.2 |
| 20260507070551 | 10 | 313 | 0.0 | 4.8 | 0.00 | 0.00 | 0.00 | 87 | 1022.1 |
| 20260507070211 | 11 | 313 | 1.6 | 4.8 | 0.00 | 0.00 | 0.00 | 87 | 1022.1 |
| 20260507070039 | 10 | 313 | 0.0 | 4.8 | 0.00 | 0.00 | 0.00 | 87 | 1022.0 |
| 20260507065712 | 11 | 309 | 1.6 | 6.4 | 0.00 | 0.00 | 0.00 | 86 | 1022.2 |
| 20260507065513 | 10 | 309 | 1.6 | 6.4 | 0.00 | 0.00 | 0.00 | 86 | 1022.2 |
| 20260507065221 | 11 | 306 | 3.2 | 6.4 | 0.00 | 0.00 | 0.00 | 86 | 1022.3 |
| 20260507065057 | 10 | 296 | 3.2 | 6.4 | 0.00 | 0.00 | 0.00 | 86 | 1022.2 |
| 20260507064751 | 11 | 298 | 3.2 | 6.4 | 0.00 | 0.00 | 0.00 | 86 | 1022.3 |
| 20260507064517 | 11 | 321 | 1.6 | 6.4 | 0.00 | 0.00 | 0.00 | 86 | 1022.1 |
| 20260507064211 | 11 | 315 | 3.2 | 6.4 | 0.00 | 0.00 | 0.00 | 86 | 1022.3 |
| 20260507064101 | 11 | 306 | 1.6 | 3.2 | 0.00 | 0.00 | 0.00 | 86 | 1022.1 |
| 20260507063712 | 11 | 302 | 1.6 | 3.2 | 0.00 | 0.00 | 0.00 | 86 | 1022.3 |
| 20260507063545 | 11 | 302 | 1.6 | 3.2 | 0.00 | 0.00 | 0.00 | 86 | 1022.1 |
| 20260507063214 | 11 | 302 | 1.6 | 4.8 | 0.00 | 0.00 | 0.00 | 86 | 1022.3 |
| 20260507063024 | 11 | 293 | 0.0 | 4.8 | 0.00 | 0.00 | 0.00 | 86 | 1022.1 |
| 20260507062722 | 11 | 293 | 1.6 | 4.8 | 0.00 | 0.00 | 0.00 | 86 | 1022.2 |
| 20260507062507 | 11 | 287 | 1.6 | 6.4 | 0.00 | 0.00 | 0.00 | 86 | 1022.1 |
| 20260507062224 | 11 | 308 | 1.6 | 6.4 | 0.00 | 0.00 | 0.00 | 86 | 1022.3 |
| 20260507062049 | 11 | 308 | 0.0 | 6.4 | 0.00 | 0.00 | 0.00 | 86 | 1022.1 |
| 20260507061726 | 11 | 308 | 3.2 | 6.4 | 0.00 | 0.00 | 0.00 | 85 | 1022.3 |
| 20260507061536 | 11 | 338 | 1.6 | 4.8 | 0.00 | 0.00 | 0.00 | 86 | 1022.2 |
| 20260507061234 | 11 | 304 | 1.6 | 4.8 | 0.00 | 0.00 | 0.00 | 86 | 1022.3 |
| 20260507061013 | 11 | 331 | 1.6 | 4.8 | 0.00 | 0.00 | 0.00 | 86 | 1022.2 |
| 20260507060715 | 11 | 330 | 1.6 | 4.8 | 0.00 | 0.00 | 0.00 | 86 | 1022.3 |
| 20260507060555 | 11 | 322 | 0.0 | 4.8 | 0.00 | 0.00 | 0.00 | 86 | 1022.2 |
| 20260507060237 | 11 | 322 | 3.2 | 8.0 | 0.00 | 0.00 | 0.00 | 86 | 1022.4 |
| 20260507060012 | 11 | 290 | 1.6 | 8.0 | 0.00 | 0.00 | 0.00 | 86 | 1022.2 |
| 20260507055720 | 11 | 280 | 3.2 | 8.0 | 0.00 | 0.00 | 0.00 | 85 | 1022.4 |
| 20260507055555 | 11 | 277 | 3.2 | 9.7 | 0.00 | 0.00 | 0.00 | 85 | 1022.2 |
| 20260507055228 | 11 | 312 | 1.6 | 9.7 | 0.00 | 0.00 | 0.00 | 86 | 1022.4 |
| 20260507055016 | 11 | 328 | 1.6 | 9.7 | 0.00 | 0.00 | 0.00 | 85 | 1022.2 |
| 20260507054709 | 11 | 321 | 1.6 | 8.0 | 0.00 | 0.00 | 0.00 | 85 | 1022.4 |
| 20260507054559 | 11 | 305 | 1.6 | 8.0 | 0.00 | 0.00 | 0.00 | 85 | 1022.2 |
| 20260507054231 | 11 | 325 | 1.6 | 8.0 | 0.00 | 0.00 | 0.00 | 85 | 1022.4 |
| 20260507054022 | 11 | 327 | 3.2 | 8.0 | 0.00 | 0.00 | 0.00 | 85 | 1022.2 |
| 20260507053718 | 11 | 300 | 3.2 | 11.3 | 0.00 | 0.00 | 0.00 | 85 | 1022.4 |
| 20260507053501 | 11 | 321 | 0.0 | 11.3 | 0.00 | 0.00 | 0.00 | 85 | 1022.2 |
| 20260507053220 | 11 | 324 | 4.8 | 11.3 | 0.00 | 0.00 | 0.00 | 85 | 1022.4 |
| 20260507053045 | 11 | 292 | 4.8 | 11.3 | 0.00 | 0.00 | 0.00 | 85 | 1022.4 |
| 20260507052722 | 11 | 306 | 1.6 | 6.4 | 0.00 | 0.00 | 0.00 | 85 | 1022.4 |
| 20260507052526 | 11 | 315 | 1.6 | 6.4 | 0.00 | 0.00 | 0.00 | 85 | 1022.4 |
| 20260507052230 | 11 | 298 | 3.2 | 6.4 | 0.00 | 0.00 | 0.00 | 85 | 1022.4 |
| 20260507052008 | 11 | 323 | 3.2 | 6.4 | 0.00 | 0.00 | 0.00 | 85 | 1022.3 |
| 20260507051710 | 11 | 301 | 1.6 | 4.8 | 0.00 | 0.00 | 0.00 | 85 | 1022.4 |
| 20260507051531 | 11 | 275 | 1.6 | 4.8 | 0.00 | 0.00 | 0.00 | 85 | 1022.3 |
| 20260507051212 | 11 | 293 | 3.2 | 6.4 | 0.00 | 0.00 | 0.00 | 85 | 1022.4 |
| 20260507051011 | 11 | 317 | 1.6 | 6.4 | 0.00 | 0.00 | 0.00 | 84 | 1022.4 |
| 20260507050721 | 11 | 279 | 1.6 | 6.4 | 0.00 | 0.00 | 0.00 | 84 | 1022.5 |
| 20260507050555 | 11 | 273 | 1.6 | 6.4 | 0.00 | 0.00 | 0.00 | 84 | 1022.3 |
| 20260507050222 | 11 | 224 | 1.6 | 6.4 | 0.00 | 0.00 | 0.00 | 84 | 1022.5 |
| 20260507050036 | 11 | 268 | 1.6 | 6.4 | 0.00 | 0.00 | 0.00 | 84 | 1022.3 |
| 20260507045730 | 12 | 268 | 1.6 | 6.4 | 0.00 | 0.00 | 0.00 | 84 | 1022.5 |
| 20260507045518 | 11 | 303 | 1.6 | 6.4 | 0.00 | 0.00 | 0.00 | 84 | 1022.3 |
| 20260507045232 | 12 | 289 | 1.6 | 6.4 | 0.00 | 0.00 | 0.00 | 83 | 1022.5 |
| 20260507045041 | 11 | 290 | 1.6 | 6.4 | 0.00 | 0.00 | 0.00 | 83 | 1022.3 |
| 20260507044710 | 12 | 315 | 3.2 | 6.4 | 0.00 | 0.00 | 0.00 | 83 | 1022.4 |
| 20260507044519 | 11 | 312 | 1.6 | 6.4 | 0.00 | 0.00 | 0.00 | 83 | 1022.2 |
| 20260507044239 | 12 | 265 | 4.8 | 6.4 | 0.00 | 0.00 | 0.00 | 83 | 1022.4 |
| 20260507044043 | 11 | 265 | 3.2 | 6.4 | 0.00 | 0.00 | 0.00 | 83 | 1022.4 |
| 20260507043719 | 12 | 320 | 3.2 | 9.7 | 0.00 | 0.00 | 0.00 | 83 | 1022.5 |
| 20260507043525 | 11 | 309 | 4.8 | 9.7 | 0.00 | 0.00 | 0.00 | 83 | 1022.3 |
| 20260507043227 | 12 | 285 | 4.8 | 9.7 | 0.00 | 0.00 | 0.00 | 83 | 1022.6 |
| 20260507043005 | 11 | 277 | 3.2 | 9.7 | 0.00 | 0.00 | 0.00 | 82 | 1022.4 |
| 20260507042729 | 12 | 318 | 3.2 | 6.4 | 0.00 | 0.00 | 0.00 | 83 | 1022.5 |
| 20260507042549 | 12 | 261 | 3.2 | 6.4 | 0.00 | 0.00 | 0.00 | 83 | 1022.3 |
| 20260507042210 | 12 | 265 | 1.6 | 4.8 | 0.00 | 0.00 | 0.00 | 83 | 1022.5 |
| 20260507042030 | 12 | 281 | 1.6 | 8.0 | 0.00 | 0.00 | 0.00 | 83 | 1022.3 |
| 20260507041712 | 12 | 326 | 3.2 | 8.0 | 0.00 | 0.00 | 0.00 | 83 | 1022.5 |
| 20260507041512 | 12 | 328 | 1.6 | 8.0 | 0.00 | 0.00 | 0.00 | 83 | 1022.3 |
| 20260507041240 | 12 | 279 | 3.2 | 8.0 | 0.00 | 0.00 | 0.00 | 83 | 1022.5 |
| 20260507041034 | 12 | 333 | 1.6 | 6.4 | 0.00 | 0.00 | 0.00 | 83 | 1022.4 |
| 20260507040724 | 12 | 246 | 3.2 | 6.4 | 0.00 | 0.00 | 0.00 | 82 | 1022.4 |
| 20260507040513 | 12 | 322 | 3.2 | 6.4 | 0.00 | 0.00 | 0.00 | 82 | 1022.2 |
| 20260507040226 | 12 | 327 | 1.6 | 9.7 | 0.00 | 0.00 | 0.00 | 82 | 1022.4 |
| 20260507040105 | 12 | 328 | 1.6 | 9.7 | 0.00 | 0.00 | 0.00 | 82 | 1022.2 |
| 20260507035754 | 12 | 279 | 3.2 | 9.7 | 0.00 | 0.00 | 0.00 | 82 | 1022.4 |
| 20260507035517 | 12 | 308 | 3.2 | 9.7 | 0.00 | 0.00 | 0.00 | 82 | 1022.2 |
| 20260507035215 | 12 | 288 | 1.6 | 8.0 | 0.00 | 0.00 | 0.00 | 82 | 1022.4 |
| 20260507035100 | 12 | 288 | 1.6 | 8.0 | 0.00 | 0.00 | 0.00 | 82 | 1022.2 |
| 20260507034716 | 12 | 232 | 3.2 | 8.0 | 0.00 | 0.00 | 0.00 | 82 | 1022.3 |
| 20260507034554 | 12 | 309 | 0.0 | 8.0 | 0.00 | 0.00 | 0.00 | 82 | 1022.1 |
| 20260507034217 | 12 | 331 | 1.6 | 8.0 | 0.00 | 0.00 | 0.00 | 82 | 1022.3 |
| 20260507034024 | 12 | 331 | 3.2 | 8.0 | 0.00 | 0.00 | 0.00 | 82 | 1022.0 |
| 20260507033746 | 12 | 266 | 4.8 | 8.0 | 0.00 | 0.00 | 0.00 | 82 | 1022.2 |
| 20260507033545 | 12 | 214 | 3.2 | 11.3 | 0.00 | 0.00 | 0.00 | 82 | 1021.9 |
| 20260507033254 | 12 | 242 | 3.2 | 14.5 | 0.00 | 0.00 | 0.00 | 82 | 1022.2 |
| 20260507033004 | 12 | 309 | 3.2 | 16.1 | 0.00 | 0.00 | 0.00 | 81 | 1022.0 |
| 20260507032713 | 12 | 259 | 8.0 | 16.1 | 0.00 | 0.00 | 0.00 | 81 | 1022.1 |
| 20260507032550 | 12 | 254 | 4.8 | 16.1 | 0.00 | 0.00 | 0.00 | 82 | 1021.8 |
| 20260507032214 | 12 | 325 | 8.0 | 14.5 | 0.00 | 0.00 | 0.00 | 82 | 1021.9 |
| 20260507032028 | 12 | 308 | 3.2 | 11.3 | 0.00 | 0.00 | 0.00 | 82 | 1021.8 |
| 20260507031723 | 13 | 258 | 3.2 | 9.7 | 0.00 | 0.00 | 0.00 | 83 | 1021.9 |
| 20260507031510 | 12 | 293 | 4.8 | 9.7 | 0.00 | 0.00 | 0.00 | 82 | 1021.7 |
| 20260507031224 | 13 | 313 | 3.2 | 16.1 | 0.00 | 0.00 | 0.00 | 82 | 1021.9 |
| 20260507031054 | 12 | 302 | 1.6 | 16.1 | 0.00 | 0.00 | 0.00 | 82 | 1021.7 |
| 20260507030725 | 13 | 341 | 4.8 | 16.1 | 0.00 | 0.00 | 0.00 | 82 | 1021.8 |
| 20260507030538 | 13 | 319 | 8.0 | 16.1 | 0.00 | 0.00 | 0.00 | 82 | 1021.7 |
| 20260507030234 | 13 | 313 | 3.2 | 14.5 | 0.00 | 0.00 | 0.00 | 82 | 1021.8 |
| 20260507030017 | 13 | 316 | 4.8 | 14.5 | 0.00 | 0.00 | 0.00 | 82 | 1021.6 |
| 20260507025715 | 13 | 321 | 6.4 | 16.1 | 0.00 | 0.00 | 0.00 | 81 | 1021.7 |
| 20260507025600 | 13 | 277 | 6.4 | 16.1 | 0.00 | 0.00 | 0.00 | 81 | 1021.6 |
| 20260507025217 | 13 | 17 | 6.4 | 16.1 | 0.00 | 0.00 | 0.00 | 81 | 1021.7 |
| 20260507025041 | 13 | 252 | 8.0 | 16.1 | 0.00 | 0.00 | 0.00 | 81 | 1021.4 |
| 20260507024718 | 13 | 295 | 4.8 | 14.5 | 0.00 | 0.00 | 0.00 | 81 | 1021.5 |
| 20260507024523 | 13 | 303 | 3.2 | 14.5 | 0.00 | 0.00 | 0.00 | 81 | 1021.4 |
| 20260507024227 | 13 | 328 | 6.4 | 14.5 | 0.00 | 0.00 | 0.00 | 81 | 1021.5 |
| 20260507024008 | 13 | 292 | 6.4 | 12.9 | 0.00 | 0.00 | 0.00 | 81 | 1021.4 |
| 20260507023728 | 14 | 331 | 4.8 | 11.3 | 0.00 | 0.00 | 0.00 | 81 | 1021.5 |
| 20260507023547 | 13 | 321 | 3.2 | 11.3 | 0.00 | 0.00 | 0.00 | 81 | 1021.3 |
| 20260507023229 | 14 | 268 | 4.8 | 9.7 | 0.00 | 0.00 | 0.00 | 80 | 1021.5 |
| 20260507023029 | 13 | 304 | 6.4 | 9.7 | 0.00 | 0.00 | 0.00 | 80 | 1021.2 |
| 20260507022710 | 14 | 294 | 1.6 | 9.7 | 0.00 | 0.00 | 0.00 | 81 | 1021.4 |
| 20260507022512 | 14 | 342 | 1.6 | 12.9 | 0.00 | 0.00 | 0.00 | 80 | 1021.3 |
| 20260507022219 | 14 | 303 | 1.6 | 14.5 | 0.00 | 0.00 | 0.00 | 80 | 1021.5 |
| 20260507022054 | 14 | 289 | 0.0 | 14.5 | 0.00 | 0.00 | 0.00 | 80 | 1021.2 |
| 20260507021721 | 14 | 278 | 6.4 | 14.5 | 0.00 | 0.00 | 0.00 | 80 | 1021.5 |
| 20260507021536 | 14 | 344 | 6.4 | 14.5 | 0.00 | 0.00 | 0.00 | 80 | 1021.3 |
| 20260507021229 | 14 | 317 | 4.8 | 12.9 | 0.00 | 0.00 | 0.00 | 80 | 1021.5 |
| 20260507021017 | 14 | 280 | 3.2 | 12.9 | 0.00 | 0.00 | 0.00 | 80 | 1021.3 |
| 20260507020711 | 15 | 281 | 4.8 | 12.9 | 0.00 | 0.00 | 0.00 | 80 | 1021.5 |
| 20260507020601 | 14 | 355 | 3.2 | 12.9 | 0.00 | 0.00 | 0.00 | 80 | 1021.3 |
| 20260507020212 | 15 | 315 | 6.4 | 12.9 | 0.00 | 0.00 | 0.00 | 80 | 1021.5 |
| 20260507020042 | 14 | 251 | 4.8 | 12.9 | 0.00 | 0.00 | 0.00 | 80 | 1021.3 |
| 20260507015719 | 15 | 292 | 6.4 | 12.9 | 0.00 | 0.00 | 0.00 | 79 | 1021.5 |
| 20260507015503 | 14 | 284 | 4.8 | 17.7 | 0.00 | 0.00 | 0.00 | 80 | 1021.3 |
| 20260507015240 | 15 | 335 | 6.4 | 17.7 | 0.00 | 0.00 | 0.00 | 79 | 1021.5 |
| 20260507015026 | 15 | 296 | 4.8 | 17.7 | 0.00 | 0.00 | 0.00 | 79 | 1021.4 |
| 20260507014728 | 15 | 355 | 8.0 | 17.7 | 0.00 | 0.00 | 0.00 | 79 | 1021.6 |
| 20260507014506 | 15 | 288 | 8.0 | 16.1 | 0.00 | 0.00 | 0.00 | 78 | 1021.5 |
| 20260507014210 | 15 | 336 | 8.0 | 16.1 | 0.00 | 0.00 | 0.00 | 78 | 1021.6 |
| 20260507014050 | 15 | 286 | 8.0 | 14.5 | 0.00 | 0.00 | 0.00 | 78 | 1021.5 |
| 20260507013711 | 15 | 290 | 4.8 | 17.7 | 0.00 | 0.00 | 0.00 | 78 | 1021.6 |
| 20260507013532 | 15 | 5 | 4.8 | 17.7 | 0.00 | 0.00 | 0.00 | 79 | 1021.4 |
| 20260507013240 | 15 | 320 | 4.8 | 17.7 | 0.00 | 0.00 | 0.00 | 78 | 1021.7 |
| 20260507013113 | 15 | 292 | 6.4 | 17.7 | 0.00 | 0.00 | 0.00 | 77 | 1021.5 |
| 20260507012747 | 16 | 309 | 8.0 | 17.7 | 0.00 | 0.00 | 0.00 | 77 | 1021.7 |
| 20260507012515 | 15 | 309 | 8.0 | 17.7 | 0.00 | 0.00 | 0.00 | 77 | 1021.5 |
| 20260507012228 | 16 | 320 | 6.4 | 16.1 | 0.00 | 0.00 | 0.00 | 77 | 1021.7 |
| 20260507012058 | 15 | 303 | 8.0 | 19.3 | 0.00 | 0.00 | 0.00 | 77 | 1021.6 |
| 20260507011729 | 16 | 285 | 3.2 | 19.3 | 0.00 | 0.00 | 0.00 | 78 | 1021.7 |
| 20260507011540 | 15 | 333 | 4.8 | 19.3 | 0.00 | 0.00 | 0.00 | 78 | 1021.6 |
| 20260507011210 | 16 | 5 | 11.3 | 19.3 | 0.00 | 0.00 | 0.00 | 77 | 1021.8 |
| 20260507011021 | 15 | 355 | 9.7 | 17.7 | 0.00 | 0.00 | 0.00 | 77 | 1021.6 |
| 20260507010719 | 16 | 317 | 9.7 | 17.7 | 0.00 | 0.00 | 0.00 | 77 | 1021.7 |
| 20260507010604 | 15 | 313 | 6.4 | 17.7 | 0.00 | 0.00 | 0.00 | 77 | 1021.5 |
| 20260507010237 | 16 | 345 | 6.4 | 17.7 | 0.00 | 0.00 | 0.00 | 77 | 1021.8 |
| 20260507010031 | 15 | 327 | 6.4 | 17.7 | 0.00 | 0.00 | 0.00 | 77 | 1021.6 |
| 20260507005724 | 16 | 257 | 8.0 | 17.7 | 0.00 | 0.00 | 0.00 | 76 | 1021.9 |
| 20260507005502 | 16 | 276 | 8.0 | 17.7 | 0.00 | 0.00 | 0.00 | 76 | 1021.7 |
| 20260507005225 | 16 | 299 | 8.0 | 14.5 | 0.00 | 0.00 | 0.00 | 76 | 1021.8 |
| 20260507005024 | 16 | 300 | 4.8 | 16.1 | 0.00 | 0.00 | 0.00 | 76 | 1021.7 |
| 20260507004712 | 16 | 347 | 6.4 | 16.1 | 0.00 | 0.00 | 0.00 | 76 | 1021.8 |
| 20260507004547 | 16 | 270 | 4.8 | 19.3 | 0.00 | 0.00 | 0.00 | 76 | 1021.5 |
| 20260507004214 | 16 | 322 | 9.7 | 19.3 | 0.00 | 0.00 | 0.00 | 75 | 1021.8 |
| 20260507004029 | 16 | 328 | 8.0 | 19.3 | 0.00 | 0.00 | 0.00 | 75 | 1021.6 |
| 20260507003722 | 17 | 334 | 11.3 | 17.7 | 0.00 | 0.00 | 0.00 | 74 | 1021.7 |
| 20260507003510 | 16 | 348 | 8.0 | 17.7 | 0.00 | 0.00 | 0.00 | 75 | 1021.5 |
| 20260507003224 | 17 | 300 | 8.0 | 17.7 | 0.00 | 0.00 | 0.00 | 74 | 1021.7 |
| 20260507003053 | 17 | 268 | 8.0 | 17.7 | 0.00 | 0.00 | 0.00 | 74 | 1021.5 |
| 20260507002726 | 17 | 294 | 4.8 | 14.5 | 0.00 | 0.00 | 0.00 | 73 | 1021.8 |
| 20260507002535 | 17 | 329 | 4.8 | 14.5 | 0.00 | 0.00 | 0.00 | 74 | 1021.5 |
| 20260507002234 | 18 | 319 | 6.4 | 14.5 | 0.00 | 0.00 | 0.00 | 74 | 1021.7 |
| 20260507002058 | 17 | 315 | 4.8 | 14.5 | 0.00 | 0.00 | 0.00 | 75 | 1021.5 |
| 20260507001735 | 17 | 328 | 4.8 | 16.1 | 0.00 | 0.00 | 0.00 | 75 | 1021.6 |
| 20260507001519 | 17 | 290 | 6.4 | 16.1 | 0.00 | 0.00 | 0.00 | 75 | 1021.4 |
| 20260507001222 | 17 | 360 | 3.2 | 16.1 | 0.00 | 0.00 | 0.00 | 75 | 1021.7 |
| 20260507001102 | 17 | 348 | 4.8 | 16.1 | 0.00 | 0.00 | 0.00 | 74 | 1021.5 |
| 20260507000723 | 17 | 323 | 6.4 | 16.1 | 0.00 | 0.00 | 0.00 | 76 | 1021.6 |
| 20260507000523 | 17 | 316 | 3.2 | 16.1 | 0.00 | 0.00 | 0.00 | 76 | 1021.5 |
| 20260507000231 | 17 | 242 | 6.4 | 16.1 | 0.00 | 0.00 | 0.00 | 75 | 1021.7 |
| 20260507000045 | 17 | 346 | 4.8 | 16.1 | 0.00 | 0.00 | 0.00 | 76 | 1021.5 |
| 20260506235739 | 17 | 227 | 8.0 | 16.1 | 0.00 | 0.00 | 0.00 | 75 | 1021.6 |
| 20260506235506 | 17 | 201 | 8.0 | 16.1 | 0.00 | 0.00 | 0.00 | 75 | 1021.4 |
| 20260506235219 | 17 | 211 | 9.7 | 17.7 | 0.00 | 0.00 | 0.00 | 75 | 1021.6 |
| 20260506235050 | 17 | 221 | 8.0 | 17.7 | 0.00 | 0.00 | 0.00 | 74 | 1021.4 |
| 20260506234748 | 17 | 304 | 9.7 | 17.7 | 0.00 | 0.00 | 0.00 | 73 | 1021.6 |
| 20260506234518 | 17 | 236 | 4.8 | 16.1 | 0.00 | 0.00 | 0.00 | 75 | 1021.4 |
| 20260506234228 | 17 | 286 | 4.8 | 16.1 | 0.00 | 0.00 | 0.00 | 74 | 1021.6 |
| 20260506234054 | 17 | 319 | 3.2 | 16.1 | 0.00 | 0.00 | 0.00 | 74 | 1021.4 |
| 20260506233730 | 17 | 309 | 4.8 | 14.5 | 0.00 | 0.00 | 0.00 | 75 | 1021.6 |
| 20260506233535 | 17 | 32 | 4.8 | 11.3 | 0.00 | 0.00 | 0.00 | 74 | 1021.4 |
| 20260506233211 | 17 | 309 | 4.8 | 9.7 | 0.00 | 0.00 | 0.00 | 74 | 1021.6 |
| 20260506233015 | 17 | 265 | 4.8 | 11.3 | 0.00 | 0.00 | 0.00 | 76 | 1021.4 |
| 20260506232719 | 17 | 216 | 3.2 | 6.4 | 0.00 | 0.00 | 0.00 | 76 | 1021.6 |
| 20260506232559 | 17 | 242 | 1.6 | 8.0 | 0.00 | 0.00 | 0.00 | 75 | 1021.5 |
| 20260506232242 | 17 | 223 | 1.6 | 8.0 | 0.00 | 0.00 | 0.00 | 76 | 1021.7 |
| 20260506232021 | 16 | 320 | 0.0 | 8.0 | 0.00 | 0.00 | 0.00 | 75 | 1021.5 |
| 20260506231730 | 17 | 331 | 4.8 | 9.7 | 0.00 | 0.00 | 0.00 | 76 | 1021.7 |
| 20260506231503 | 16 | 318 | 3.2 | 9.7 | 0.00 | 0.00 | 0.00 | 76 | 1021.5 |
| 20260506231211 | 17 | 255 | 6.4 | 12.9 | 0.00 | 0.00 | 0.00 | 75 | 1021.7 |
| 20260506231046 | 16 | 225 | 6.4 | 12.9 | 0.00 | 0.00 | 0.00 | 76 | 1021.5 |
| 20260506230719 | 17 | 198 | 6.4 | 12.9 | 0.00 | 0.00 | 0.00 | 78 | 1021.7 |
| 20260506230507 | 16 | 235 | 8.0 | 17.7 | 0.00 | 0.00 | 0.00 | 75 | 1021.5 |
| 20260506230220 | 17 | 248 | 6.4 | 17.7 | 0.00 | 0.00 | 0.00 | 76 | 1021.8 |
| 20260506230050 | 17 | 208 | 4.8 | 17.7 | 0.00 | 0.00 | 0.00 | 76 | 1021.6 |
| 20260506225721 | 17 | 221 | 8.0 | 17.7 | 0.00 | 0.00 | 0.00 | 77 | 1021.8 |
| 20260506225531 | 16 | 258 | 3.2 | 12.9 | 0.00 | 0.00 | 0.00 | 78 | 1021.6 |
| 20260506225230 | 17 | 224 | 4.8 | 14.5 | 0.00 | 0.00 | 0.00 | 75 | 1021.8 |
| 20260506225013 | 16 | 240 | 4.8 | 19.3 | 0.00 | 0.00 | 0.00 | 76 | 1021.8 |
| 20260506224711 | 17 | 246 | 8.0 | 19.3 | 0.00 | 0.00 | 0.00 | 75 | 1021.9 |
| 20260506224612 | 17 | 231 | 8.0 | 19.3 | 0.00 | 0.00 | 0.00 | 74 | 1021.7 |
| 20260506224213 | 17 | 199 | 12.9 | 20.9 | 0.00 | 0.00 | 0.00 | 75 | 1021.9 |
| 20260506224037 | 17 | 181 | 11.3 | 16.1 | 0.00 | 0.00 | 0.00 | 75 | 1021.7 |
| 20260506223720 | 17 | 180 | 9.7 | 12.9 | 0.00 | 0.00 | 0.00 | 76 | 1022.0 |
| 20260506223600 | 17 | 247 | 8.0 | 12.9 | 0.00 | 0.00 | 0.00 | 76 | 1021.8 |
| 20260506223221 | 17 | 188 | 6.4 | 11.3 | 0.00 | 0.00 | 0.00 | 75 | 1022.2 |
| 20260506223042 | 17 | 211 | 3.2 | 11.3 | 0.00 | 0.00 | 0.00 | 77 | 1022.1 |
| 20260506222751 | 17 | 195 | 4.8 | 12.9 | 0.00 | 0.00 | 0.00 | 77 | 1022.2 |
| 20260506222504 | 17 | 223 | 6.4 | 12.9 | 0.00 | 0.00 | 0.00 | 76 | 1022.0 |
| 20260506222211 | 17 | 215 | 8.0 | 12.9 | 0.00 | 0.00 | 0.00 | 75 | 1022.2 |
| 20260506222026 | 17 | 236 | 4.8 | 12.9 | 0.00 | 0.00 | 0.00 | 79 | 1022.0 |
| 20260506221719 | 17 | 256 | 3.2 | 6.4 | 0.00 | 0.00 | 0.00 | 79 | 1022.2 |
| 20260506221506 | 16 | 298 | 1.6 | 6.4 | 0.00 | 0.00 | 0.00 | 77 | 1022.1 |
| 20260506221219 | 16 | 204 | 3.2 | 6.4 | 0.00 | 0.00 | 0.00 | 78 | 1022.3 |
| 20260506221049 | 16 | 225 | 3.2 | 6.4 | 0.00 | 0.00 | 0.00 | 77 | 1022.1 |
| 20260506220721 | 16 | 272 | 3.2 | 8.0 | 0.00 | 0.00 | 0.00 | 79 | 1022.3 |
| 20260506220531 | 16 | 292 | 3.2 | 8.0 | 0.00 | 0.00 | 0.00 | 80 | 1022.2 |
| 20260506220249 | 16 | 242 | 3.2 | 8.0 | 0.00 | 0.00 | 0.00 | 81 | 1022.3 |
| 20260506220105 | 16 | 262 | 3.2 | 9.7 | 0.00 | 0.00 | 0.00 | 81 | 1022.1 |
| 20260506215757 | 16 | 246 | 3.2 | 8.0 | 0.00 | 0.00 | 0.00 | 81 | 1022.3 |
| 20260506215513 | 16 | 237 | 3.2 | 8.0 | 0.00 | 0.00 | 0.00 | 80 | 1022.1 |
| 20260506215217 | 16 | 238 | 4.8 | 8.0 | 0.00 | 0.00 | 0.00 | 79 | 1022.3 |
| 20260506215057 | 16 | 242 | 4.8 | 9.7 | 0.00 | 0.00 | 0.00 | 79 | 1022.1 |
| 20260506214717 | 16 | 219 | 1.6 | 6.4 | 0.00 | 0.00 | 0.00 | 81 | 1022.3 |
| 20260506214518 | 16 | 329 | 0.0 | 9.7 | 0.00 | 0.00 | 0.00 | 81 | 1022.1 |
| 20260506214221 | 16 | 208 | 4.8 | 9.7 | 0.00 | 0.00 | 0.00 | 80 | 1022.3 |
| 20260506214039 | 16 | 203 | 3.2 | 9.7 | 0.00 | 0.00 | 0.00 | 80 | 1022.1 |
| 20260506213722 | 16 | 200 | 6.4 | 9.7 | 0.00 | 0.00 | 0.00 | 80 | 1022.4 |
| 20260506213521 | 16 | 223 | 3.2 | 11.3 | 0.00 | 0.00 | 0.00 | 82 | 1022.2 |
| 20260506213214 | 16 | 261 | 6.4 | 11.3 | 0.00 | 0.00 | 0.00 | 81 | 1022.3 |
| 20260506213003 | 16 | 261 | 3.2 | 6.4 | 0.00 | 0.00 | 0.00 | 82 | 1022.2 |
| 20260506212716 | 16 | 300 | 3.2 | 4.8 | 0.00 | 0.00 | 0.00 | 83 | 1022.4 |
| 20260506212546 | 15 | 260 | 1.6 | 4.8 | 0.00 | 0.00 | 0.00 | 82 | 1022.1 |
| 20260506212217 | 16 | 257 | 1.6 | 4.8 | 0.00 | 0.00 | 0.00 | 83 | 1022.3 |
| 20260506212027 | 15 | 245 | 1.6 | 4.8 | 0.00 | 0.00 | 0.00 | 83 | 1022.1 |
| 20260506211721 | 15 | 245 | 1.6 | 11.3 | 0.00 | 0.00 | 0.00 | 83 | 1022.3 |
| 20260506211555 | 15 | 244 | 1.6 | 11.3 | 0.00 | 0.00 | 0.00 | 82 | 1022.1 |
| 20260506211249 | 15 | 238 | 3.2 | 11.3 | 0.00 | 0.00 | 0.00 | 83 | 1022.4 |
| 20260506211009 | 15 | 245 | 1.6 | 9.7 | 0.00 | 0.00 | 0.00 | 83 | 1022.3 |
| 20260506210728 | 15 | 243 | 4.8 | 8.0 | 0.00 | 0.00 | 0.00 | 82 | 1022.4 |
| 20260506210553 | 15 | 226 | 4.8 | 8.0 | 0.00 | 0.00 | 0.00 | 83 | 1022.3 |
| 20260506210210 | 15 | 215 | 1.6 | 6.4 | 0.00 | 0.00 | 0.00 | 83 | 1022.5 |
| 20260506210034 | 15 | 215 | 0.0 | 6.4 | 0.00 | 0.00 | 0.00 | 83 | 1022.3 |
| 20260506205711 | 15 | 245 | 3.2 | 8.0 | 0.00 | 0.00 | 0.00 | 84 | 1022.5 |
| 20260506205515 | 15 | 271 | 1.6 | 11.3 | 0.00 | 0.00 | 0.00 | 84 | 1022.3 |
| 20260506205219 | 15 | 236 | 4.8 | 11.3 | 0.00 | 0.00 | 0.00 | 83 | 1022.4 |
| 20260506205039 | 15 | 226 | 4.8 | 11.3 | 0.00 | 0.00 | 0.00 | 83 | 1022.3 |
| 20260506204720 | 15 | 225 | 4.8 | 11.3 | 0.00 | 0.00 | 0.00 | 85 | 1022.5 |
| 20260506204519 | 15 | 207 | 0.0 | 4.8 | 0.00 | 0.00 | 0.00 | 84 | 1022.3 |
| 20260506204229 | 15 | 106 | 1.6 | 8.0 | 0.00 | 0.00 | 0.00 | 84 | 1022.5 |
| 20260506204000 | 15 | 249 | 0.0 | 8.0 | 0.00 | 0.00 | 0.00 | 85 | 1022.4 |
| 20260506203710 | 15 | 249 | 3.2 | 8.0 | 0.00 | 0.00 | 0.00 | 86 | 1022.6 |
| 20260506203543 | 15 | 178 | 4.8 | 8.0 | 0.00 | 0.00 | 0.00 | 86 | 1022.4 |
| 20260506203210 | 15 | 213 | 4.8 | 8.0 | 0.00 | 0.00 | 0.00 | 86 | 1022.5 |
| 20260506203026 | 15 | 230 | 4.8 | 8.0 | 0.00 | 0.00 | 0.00 | 85 | 1022.4 |
| 20260506202719 | 15 | 228 | 3.2 | 11.3 | 0.00 | 0.00 | 0.00 | 85 | 1022.5 |
| 20260506202506 | 15 | 240 | 1.6 | 12.9 | 0.00 | 0.00 | 0.00 | 86 | 1022.4 |
| 20260506202220 | 15 | 248 | 4.8 | 12.9 | 0.00 | 0.00 | 0.00 | 85 | 1022.5 |
| 20260506202049 | 15 | 241 | 4.8 | 12.9 | 0.00 | 0.00 | 0.00 | 86 | 1022.3 |
| 20260506201749 | 15 | 277 | 6.4 | 12.9 | 0.00 | 0.00 | 0.00 | 86 | 1022.4 |
| 20260506201513 | 15 | 213 | 1.6 | 8.0 | 0.00 | 0.00 | 0.00 | 86 | 1022.2 |
| 20260506201229 | 15 | 198 | 4.8 | 8.0 | 0.00 | 0.00 | 0.00 | 86 | 1022.4 |
| 20260506201053 | 15 | 205 | 1.6 | 8.0 | 0.00 | 0.00 | 0.00 | 87 | 1022.2 |
| 20260506200710 | 15 | 249 | 3.2 | 8.0 | 0.00 | 0.00 | 0.00 | 87 | 1022.3 |
| 20260506200534 | 14 | 206 | 3.2 | 8.0 | 0.00 | 0.00 | 0.00 | 86 | 1022.1 |
| 20260506200212 | 14 | 238 | 4.8 | 9.7 | 0.00 | 0.00 | 0.00 | 87 | 1022.4 |
| 20260506200016 | 14 | 211 | 1.6 | 9.7 | 0.00 | 0.00 | 0.00 | 87 | 1022.1 |
| 20260506195720 | 14 | 213 | 4.8 | 9.7 | 0.00 | 0.00 | 0.00 | 88 | 1022.4 |
| 20260506195559 | 14 | 215 | 6.4 | 9.7 | 0.00 | 0.00 | 0.00 | 88 | 1022.1 |
| 20260506195222 | 14 | 201 | 4.8 | 8.0 | 0.00 | 0.00 | 0.00 | 88 | 1022.3 |
| 20260506195041 | 14 | 248 | 1.6 | 9.7 | 0.00 | 0.00 | 0.00 | 88 | 1022.2 |
| 20260506194723 | 14 | 194 | 4.8 | 9.7 | 0.00 | 0.00 | 0.00 | 88 | 1022.4 |
| 20260506194531 | 13 | 173 | 3.2 | 9.7 | 0.00 | 0.00 | 0.00 | 88 | 1022.3 |
| 20260506194216 | 14 | 225 | 4.8 | 9.7 | 0.00 | 0.00 | 0.00 | 88 | 1022.5 |
| 20260506194006 | 13 | 277 | 1.6 | 8.0 | 0.00 | 0.00 | 0.00 | 88 | 1022.4 |
| 20260506193712 | 14 | 261 | 4.8 | 8.0 | 0.00 | 0.00 | 0.00 | 87 | 1022.5 |
| 20260506193525 | 14 | 233 | 4.8 | 8.0 | 0.00 | 0.00 | 0.00 | 87 | 1022.2 |
| 20260506193220 | 14 | 275 | 1.6 | 6.4 | 0.00 | 0.00 | 0.00 | 87 | 1022.3 |
| 20260506193007 | 13 | 214 | 1.6 | 6.4 | 0.00 | 0.00 | 0.00 | 87 | 1022.3 |
| 20260506192722 | 14 | 217 | 4.8 | 8.0 | 0.00 | 0.00 | 0.00 | 87 | 1022.5 |
| 20260506192550 | 14 | 219 | 3.2 | 8.0 | 0.00 | 0.00 | 0.00 | 87 | 1022.3 |
| 20260506192223 | 14 | 234 | 4.8 | 8.0 | 0.00 | 0.00 | 0.00 | 86 | 1022.5 |
| 20260506192034 | 14 | 236 | 3.2 | 8.0 | 0.00 | 0.00 | 0.00 | 86 | 1022.3 |
| 20260506191732 | 14 | 279 | 4.8 | 6.4 | 0.00 | 0.00 | 0.00 | 86 | 1022.6 |
| 20260506191555 | 14 | 305 | 3.2 | 6.4 | 0.00 | 0.00 | 0.00 | 86 | 1022.5 |
| 20260506191212 | 14 | 292 | 3.2 | 6.4 | 0.00 | 0.00 | 0.00 | 87 | 1022.4 |
| 20260506191037 | 14 | 343 | 3.2 | 6.4 | 0.00 | 0.00 | 0.00 | 87 | 1022.5 |
| 20260506190741 | 14 | 229 | 3.2 | 6.4 | 0.00 | 0.00 | 0.00 | 86 | 1022.5 |
| 20260506190559 | 14 | 227 | 3.2 | 6.4 | 0.00 | 0.00 | 0.00 | 86 | 1022.3 |
| 20260506190241 | 14 | 265 | 1.6 | 4.8 | 0.00 | 0.00 | 0.00 | 87 | 1022.5 |
| 20260506190019 | 13 | 231 | 1.6 | 6.4 | 0.00 | 0.00 | 0.00 | 87 | 1022.3 |
| 20260506185748 | 14 | 202 | 3.2 | 6.4 | 0.00 | 0.00 | 0.00 | 86 | 1022.4 |
| 20260506185540 | 13 | 240 | 1.6 | 6.4 | 0.00 | 0.00 | 0.00 | 87 | 1022.2 |
| 20260506185235 | 14 | 271 | 3.2 | 6.4 | 0.00 | 0.00 | 0.00 | 86 | 1022.3 |
| 20260506185022 | 13 | 257 | 1.6 | 6.4 | 0.00 | 0.00 | 0.00 | 87 | 1022.2 |
| 20260506184716 | 14 | 247 | 3.2 | 6.4 | 0.00 | 0.00 | 0.00 | 87 | 1022.4 |
| 20260506184503 | 13 | 244 | 3.2 | 6.4 | 0.00 | 0.00 | 0.00 | 87 | 1022.1 |
| 20260506184217 | 14 | 201 | 3.2 | 8.0 | 0.00 | 0.00 | 0.00 | 87 | 1022.4 |
| 20260506184047 | 13 | 201 | 3.2 | 8.0 | 0.00 | 0.00 | 0.00 | 87 | 1022.2 |
| 20260506183746 | 14 | 259 | 1.6 | 8.0 | 0.00 | 0.00 | 0.00 | 88 | 1022.4 |
| 20260506183507 | 13 | 229 | 3.2 | 8.0 | 0.00 | 0.00 | 0.00 | 87 | 1022.2 |
| 20260506183226 | 14 | 224 | 4.8 | 8.0 | 0.00 | 0.00 | 0.00 | 87 | 1022.3 |
| 20260506183030 | 13 | 225 | 3.2 | 8.0 | 0.00 | 0.00 | 0.00 | 87 | 1022.2 |
| 20260506182734 | 14 | 282 | 4.8 | 8.0 | 0.00 | 0.00 | 0.00 | 87 | 1022.4 |
| 20260506182551 | 13 | 339 | 1.6 | 8.0 | 0.00 | 0.00 | 0.00 | 88 | 1022.2 |
| 20260506182214 | 14 | 321 | 3.2 | 8.0 | 0.00 | 0.00 | 0.00 | 87 | 1022.4 |
| 20260506182033 | 13 | 269 | 3.2 | 8.0 | 0.00 | 0.00 | 0.00 | 87 | 1022.3 |
| 20260506181716 | 14 | 296 | 1.6 | 6.4 | 0.00 | 0.00 | 0.00 | 88 | 1022.4 |
| 20260506181516 | 13 | 302 | 0.0 | 6.4 | 0.00 | 0.00 | 0.00 | 89 | 1022.2 |
| 20260506181224 | 13 | 260 | 3.2 | 8.0 | 0.00 | 0.00 | 0.00 | 88 | 1022.2 |
| 20260506181058 | 13 | 186 | 3.2 | 8.0 | 0.00 | 0.00 | 0.00 | 87 | 1022.1 |
| 20260506180725 | 13 | 225 | 4.8 | 8.0 | 0.00 | 0.00 | 0.00 | 87 | 1022.2 |
| 20260506180541 | 13 | 227 | 4.8 | 8.0 | 0.00 | 0.00 | 0.00 | 88 | 1022.0 |
| 20260506180213 | 13 | 177 | 0.0 | 6.4 | 0.00 | 0.00 | 0.00 | 87 | 1022.3 |
| 20260506180116 | 13 | 177 | 0.0 | 6.4 | 0.00 | 0.00 | 0.00 | 87 | 1022.1 |
| 20260506175734 | 13 | 177 | 4.8 | 6.4 | 0.00 | 0.00 | 0.00 | 88 | 1022.2 |
| 20260506175525 | 13 | 229 | 1.6 | 6.4 | 0.00 | 0.00 | 0.00 | 88 | 1022.1 |
| 20260506175221 | 13 | 313 | 3.2 | 6.4 | 0.00 | 0.00 | 0.00 | 88 | 1022.3 |
| 20260506175004 | 13 | 299 | 3.2 | 6.4 | 0.00 | 0.00 | 0.00 | 88 | 1022.2 |
| 20260506174743 | 13 | 243 | 3.2 | 8.0 | 0.00 | 0.00 | 0.00 | 89 | 1022.3 |
| 20260506174526 | 13 | 228 | 1.6 | 8.0 | 0.00 | 0.00 | 0.00 | 88 | 1022.1 |
| 20260506174231 | 13 | 275 | 3.2 | 11.3 | 0.00 | 0.00 | 0.00 | 89 | 1022.3 |
| 20260506174008 | 13 | 257 | 3.2 | 11.3 | 0.00 | 0.00 | 0.00 | 89 | 1022.0 |
| 20260506173711 | 13 | 223 | 4.8 | 11.3 | 0.00 | 0.00 | 0.00 | 88 | 1022.1 |
| 20260506173530 | 13 | 248 | 4.8 | 11.3 | 0.00 | 0.00 | 0.00 | 88 | 1021.9 |
| 20260506173213 | 13 | 254 | 3.2 | 9.7 | 0.00 | 0.00 | 0.00 | 90 | 1022.2 |
| 20260506173012 | 13 | 248 | 3.2 | 9.7 | 0.00 | 0.00 | 0.00 | 89 | 1021.9 |
| 20260506172721 | 13 | 217 | 4.8 | 9.7 | 0.00 | 0.00 | 0.00 | 89 | 1022.0 |
| 20260506172534 | 13 | 215 | 4.8 | 9.7 | 0.00 | 0.00 | 0.00 | 89 | 1021.9 |
| 20260506172229 | 13 | 208 | 4.8 | 8.0 | 0.00 | 0.00 | 0.00 | 89 | 1021.9 |
| 20260506172015 | 13 | 222 | 4.8 | 8.0 | 0.00 | 0.00 | 0.00 | 88 | 1021.8 |
| 20260506171750 | 13 | 229 | 3.2 | 6.4 | 0.00 | 0.00 | 0.00 | 88 | 1022.0 |
| 20260506171541 | 13 | 237 | 3.2 | 6.4 | 0.00 | 0.00 | 0.00 | 89 | 1021.8 |
| 20260506171210 | 13 | 249 | 3.2 | 6.4 | 0.00 | 0.00 | 0.00 | 89 | 1022.0 |
| 20260506171020 | 12 | 236 | 3.2 | 6.4 | 0.00 | 0.00 | 0.00 | 88 | 1021.8 |
| 20260506170719 | 13 | 234 | 4.8 | 6.4 | 0.00 | 0.00 | 0.00 | 89 | 1021.9 |
| 20260506170500 | 13 | 232 | 3.2 | 6.4 | 0.00 | 0.00 | 0.00 | 89 | 1021.8 |
| 20260506170220 | 13 | 231 | 4.8 | 6.4 | 0.00 | 0.00 | 0.00 | 89 | 1021.9 |
| 20260506170050 | 13 | 239 | 1.6 | 4.8 | 0.00 | 0.00 | 0.00 | 90 | 1021.8 |
| 20260506165721 | 13 | 325 | 0.0 | 4.8 | 0.00 | 0.00 | 0.00 | 90 | 1021.8 |
| 20260506165525 | 12 | 325 | 0.0 | 4.8 | 0.00 | 0.00 | 0.00 | 90 | 1021.7 |
| 20260506165229 | 12 | 325 | 3.2 | 4.8 | 0.00 | 0.00 | 0.00 | 90 | 1021.9 |
| 20260506165047 | 12 | 321 | 0.0 | 4.8 | 0.00 | 0.00 | 0.00 | 90 | 1021.7 |
| 20260506164731 | 12 | 251 | 1.6 | 6.4 | 0.00 | 0.00 | 0.00 | 90 | 1021.9 |
| 20260506164513 | 12 | 249 | 3.2 | 6.4 | 0.00 | 0.00 | 0.00 | 90 | 1021.8 |
| 20260506164219 | 12 | 276 | 3.2 | 8.0 | 0.00 | 0.00 | 0.00 | 90 | 1022.0 |
| 20260506164052 | 12 | 297 | 3.2 | 8.0 | 0.00 | 0.00 | 0.00 | 90 | 1021.9 |
| 20260506163747 | 12 | 338 | 4.8 | 8.0 | 0.00 | 0.00 | 0.00 | 90 | 1021.9 |
| 20260506163512 | 12 | 355 | 3.2 | 9.7 | 0.00 | 0.00 | 0.00 | 91 | 1021.8 |
| 20260506163227 | 12 | 302 | 3.2 | 9.7 | 0.00 | 0.00 | 0.00 | 91 | 1022.0 |
| 20260506163056 | 12 | 311 | 3.2 | 9.7 | 0.00 | 0.00 | 0.00 | 91 | 1021.8 |
| 20260506162728 | 12 | 267 | 4.8 | 9.7 | 0.00 | 0.00 | 0.00 | 91 | 1021.9 |
| 20260506162537 | 12 | 241 | 3.2 | 8.0 | 0.00 | 0.00 | 0.00 | 90 | 1021.7 |
| 20260506162209 | 13 | 321 | 3.2 | 8.0 | 0.00 | 0.00 | 0.00 | 92 | 1021.9 |
| 20260506162019 | 12 | 269 | 3.2 | 8.0 | 0.00 | 0.00 | 0.00 | 91 | 1021.7 |
| 20260506161738 | 12 | 306 | 4.8 | 8.0 | 0.00 | 0.00 | 0.00 | 92 | 1021.8 |
| 20260506161541 | 12 | 221 | 3.2 | 8.0 | 0.00 | 0.00 | 0.00 | 92 | 1021.6 |
| 20260506161225 | 12 | 206 | 4.8 | 6.4 | 0.00 | 0.00 | 0.00 | 92 | 1021.8 |
| 20260506161104 | 12 | 252 | 3.2 | 6.4 | 0.00 | 0.00 | 0.00 | 92 | 1021.7 |
| 20260506160726 | 12 | 238 | 1.6 | 4.8 | 0.00 | 0.00 | 0.00 | 92 | 1021.6 |
| 20260506160543 | 12 | 238 | 1.6 | 4.8 | 0.00 | 0.00 | 0.00 | 92 | 1021.5 |
| 20260506160226 | 12 | 238 | 4.8 | 4.8 | 0.00 | 0.00 | 0.00 | 92 | 1021.5 |
| 20260506160035 | 12 | 198 | 1.6 | 4.8 | 0.00 | 0.00 | 0.00 | 92 | 1021.3 |
| 20260506155735 | 12 | 232 | 1.6 | 8.0 | 0.00 | 0.00 | 0.00 | 92 | 1021.4 |
| 20260506155507 | 12 | 232 | 1.6 | 11.3 | 0.00 | 0.00 | 0.00 | 92 | 1021.3 |
| 20260506155217 | 12 | 229 | 3.2 | 11.3 | 0.00 | 0.00 | 0.00 | 92 | 1021.4 |
| 20260506155049 | 12 | 208 | 3.2 | 11.3 | 0.00 | 0.00 | 0.00 | 93 | 1021.2 |
| 20260506154718 | 12 | 215 | 4.8 | 11.3 | 0.00 | 0.00 | 0.00 | 93 | 1021.1 |
| 20260506154531 | 12 | 194 | 3.2 | 12.9 | 0.00 | 0.00 | 0.00 | 93 | 1021.0 |
| 20260506154227 | 12 | 159 | 3.2 | 12.9 | 0.00 | 0.00 | 0.00 | 93 | 1021.0 |
| 20260506154013 | 12 | 200 | 6.4 | 12.9 | 0.00 | 0.00 | 0.00 | 93 | 1020.9 |
| 20260506153728 | 12 | 161 | 4.8 | 12.9 | 0.00 | 0.00 | 0.00 | 94 | 1021.0 |
| 20260506153556 | 12 | 152 | 3.2 | 6.4 | 0.00 | 0.00 | 0.00 | 94 | 1020.9 |
| 20260506153209 | 12 | 113 | 1.6 | 4.8 | 0.00 | 0.00 | 0.00 | 94 | 1021.1 |
| 20260506153037 | 11 | 108 | 1.6 | 4.8 | 0.00 | 0.00 | 0.00 | 94 | 1021.0 |
| 20260506152739 | 11 | 140 | 3.2 | 4.8 | 0.00 | 0.00 | 0.00 | 94 | 1021.1 |
| 20260506152601 | 11 | 106 | 1.6 | 4.8 | 0.00 | 0.00 | 0.00 | 95 | 1021.1 |
| 20260506152219 | 11 | 173 | 1.6 | 4.8 | 0.00 | 0.00 | 0.00 | 94 | 1021.4 |
| 20260506152042 | 11 | 172 | 0.0 | 4.8 | 0.00 | 0.00 | 0.00 | 94 | 1021.4 |
| 20260506151721 | 11 | 137 | 1.6 | 4.8 | 0.00 | 0.00 | 0.00 | 94 | 1021.3 |
| 20260506151524 | 11 | 142 | 1.6 | 4.8 | 0.00 | 0.00 | 0.00 | 94 | 1021.4 |
| 20260506151229 | 11 | 180 | 3.2 | 4.8 | 0.00 | 0.00 | 0.00 | 94 | 1021.6 |
| 20260506151005 | 11 | 180 | 0.0 | 3.2 | 0.00 | 0.00 | 0.00 | 94 | 1021.5 |
| 20260506150711 | 11 | 228 | 1.6 | 3.2 | 0.00 | 0.00 | 0.00 | 94 | 1021.6 |
| 20260506150548 | 11 | 229 | 0.0 | 3.2 | 0.00 | 0.00 | 0.00 | 94 | 1021.6 |
| 20260506150212 | 11 | 229 | 1.6 | 3.2 | 0.00 | 0.00 | 0.00 | 94 | 1021.7 |
| 20260506150030 | 11 | 228 | 1.6 | 3.2 | 0.00 | 0.00 | 0.00 | 94 | 1021.6 |
| 20260506145720 | 11 | 228 | 1.6 | 3.2 | 0.00 | 0.00 | 0.00 | 94 | 1021.8 |
| 20260506145553 | 11 | 237 | 1.6 | 3.2 | 0.00 | 0.00 | 0.00 | 94 | 1021.6 |
| 20260506145248 | 11 | 228 | 1.6 | 4.8 | 0.00 | 0.00 | 0.00 | 94 | 1021.7 |
| 20260506145012 | 11 | 228 | 0.0 | 4.8 | 0.00 | 0.00 | 0.00 | 94 | 1021.5 |
| 20260506144728 | 11 | 228 | 1.6 | 4.8 | 0.00 | 0.00 | 0.00 | 94 | 1021.6 |
| 20260506144537 | 11 | 228 | 1.6 | 4.8 | 0.00 | 0.00 | 0.00 | 95 | 1021.5 |
| 20260506144236 | 11 | 228 | 1.6 | 3.2 | 0.00 | 0.00 | 0.00 | 95 | 1021.6 |
| 20260506144058 | 11 | 228 | 0.0 | 3.2 | 0.00 | 0.00 | 0.00 | 95 | 1021.4 |
| 20260506143716 | 11 | 228 | 1.6 | 3.2 | 0.00 | 0.00 | 0.00 | 95 | 1021.3 |
| 20260506143539 | 11 | 228 | 0.0 | 3.2 | 0.00 | 0.00 | 0.00 | 95 | 1021.3 |
| 20260506143218 | 11 | 228 | 0.0 | 3.2 | 0.00 | 0.00 | 0.00 | 95 | 1021.3 |
| 20260506143021 | 11 | 228 | 0.0 | 3.2 | 0.00 | 0.00 | 0.00 | 95 | 1021.2 |
| 20260506142726 | 11 | 228 | 1.6 | 3.2 | 0.00 | 0.00 | 0.00 | 95 | 1021.4 |
| 20260506142504 | 11 | 228 | 1.6 | 3.2 | 0.00 | 0.00 | 0.00 | 94 | 1021.3 |
| 20260506142228 | 11 | 228 | 1.6 | 3.2 | 0.00 | 0.00 | 0.00 | 94 | 1021.4 |
| 20260506142050 | 11 | 228 | 0.0 | 3.2 | 0.00 | 0.00 | 0.00 | 94 | 1021.1 |
| 20260506141709 | 11 | 228 | 1.6 | 3.2 | 0.00 | 0.00 | 0.00 | 94 | 1021.1 |
| 20260506141527 | 11 | 228 | 1.6 | 3.2 | 0.00 | 0.00 | 0.00 | 94 | 1021.0 |
| 20260506141237 | 11 | 228 | 0.0 | 1.6 | 0.00 | 0.03 | 0.00 | 95 | 1021.0 |
| 20260506141049 | 11 | 228 | 0.0 | 1.6 | 0.00 | 0.03 | 0.00 | 95 | 1020.9 |
| 20260506140717 | 11 | 228 | 0.0 | 0.0 | 0.00 | 0.03 | 0.00 | 95 | 1020.9 |
| 20260506140530 | 11 | 228 | 0.0 | 1.6 | 0.00 | 0.03 | 0.00 | 95 | 1020.8 |
| 20260506140226 | 11 | 228 | 0.0 | 4.8 | 0.00 | 0.03 | 0.00 | 95 | 1020.8 |
| 20260506140012 | 11 | 228 | 0.0 | 4.8 | 0.00 | 0.03 | 0.00 | 94 | 1020.8 |
| 20260506135747 | 11 | 228 | 1.6 | 4.8 | 0.00 | 0.03 | 0.00 | 94 | 1020.9 |
| 20260506135534 | 11 | 228 | 1.6 | 4.8 | 0.00 | 0.03 | 0.00 | 94 | 1020.8 |
| 20260506135234 | 11 | 228 | 3.2 | 4.8 | 0.00 | 0.03 | 0.00 | 94 | 1020.9 |
| 20260506135018 | 11 | 230 | 1.6 | 4.8 | 0.00 | 0.03 | 0.00 | 94 | 1020.8 |
| 20260506134716 | 11 | 303 | 1.6 | 3.2 | 0.00 | 0.03 | 0.00 | 94 | 1020.9 |
| 20260506134600 | 11 | 303 | 1.6 | 3.2 | 0.00 | 0.03 | 0.00 | 94 | 1020.8 |
| 20260506134237 | 11 | 303 | 1.6 | 3.2 | 0.00 | 0.03 | 0.00 | 94 | 1020.8 |
| 20260506134020 | 11 | 303 | 0.0 | 3.2 | 0.00 | 0.03 | 0.00 | 94 | 1020.6 |
| 20260506133724 | 11 | 303 | 0.0 | 3.2 | 0.00 | 0.03 | 0.00 | 94 | 1020.7 |
| 20260506133602 | 11 | 303 | 0.0 | 3.2 | 0.00 | 0.03 | 0.00 | 94 | 1020.7 |
| 20260506133242 | 11 | 304 | 1.6 | 4.8 | 0.00 | 0.03 | 0.00 | 95 | 1020.7 |
| 20260506133023 | 11 | 304 | 1.6 | 4.8 | 0.00 | 0.03 | 0.00 | 95 | 1020.6 |
| 20260506132729 | 11 | 264 | 1.6 | 4.8 | 0.00 | 0.03 | 0.00 | 95 | 1020.7 |
| 20260506132504 | 11 | 264 | 1.6 | 4.8 | 0.00 | 0.03 | 0.00 | 95 | 1020.6 |
| 20260506132231 | 11 | 266 | 3.2 | 4.8 | 0.00 | 0.03 | 0.00 | 95 | 1020.7 |
| 20260506132030 | 11 | 268 | 1.6 | 4.8 | 0.00 | 0.03 | 0.00 | 94 | 1020.6 |
| 20260506131711 | 11 | 275 | 1.6 | 4.8 | 0.00 | 0.03 | 0.00 | 94 | 1020.7 |
| 20260506131520 | 11 | 280 | 1.6 | 4.8 | 0.00 | 0.03 | 0.00 | 94 | 1020.6 |
| 20260506131220 | 11 | 292 | 1.6 | 4.8 | 0.00 | 0.03 | 0.00 | 94 | 1020.5 |
| 20260506131052 | 11 | 246 | 0.0 | 3.2 | 0.00 | 0.03 | 0.00 | 94 | 1020.5 |
| 20260506130727 | 11 | 246 | 1.6 | 3.2 | 0.00 | 0.03 | 0.00 | 94 | 1020.5 |
| 20260506130513 | 11 | 246 | 0.0 | 3.2 | 0.00 | 0.03 | 0.00 | 94 | 1020.2 |
| 20260506130249 | 11 | 246 | 1.6 | 3.2 | 0.00 | 0.03 | 0.00 | 94 | 1020.4 |
| 20260506130039 | 11 | 246 | 0.0 | 3.2 | 0.00 | 0.03 | 0.00 | 94 | 1020.2 |
| 20260506125736 | 11 | 246 | 1.6 | 3.2 | 0.00 | 0.03 | 0.00 | 94 | 1020.4 |
| 20260506125515 | 11 | 227 | 0.0 | 3.2 | 0.00 | 0.03 | 0.00 | 94 | 1020.3 |
| 20260506125217 | 11 | 227 | 1.6 | 1.6 | 0.00 | 0.03 | 0.00 | 94 | 1020.3 |
| 20260506125059 | 11 | 227 | 0.0 | 3.2 | 0.00 | 0.03 | 0.00 | 94 | 1020.2 |
| 20260506124718 | 11 | 227 | 0.0 | 3.2 | 0.00 | 0.03 | 0.00 | 94 | 1020.3 |
| 20260506124541 | 11 | 227 | 0.0 | 3.2 | 0.00 | 0.03 | 0.00 | 94 | 1020.1 |
| 20260506124227 | 11 | 227 | 1.6 | 3.2 | 0.00 | 0.03 | 0.00 | 94 | 1020.3 |
| 20260506124001 | 11 | 227 | 0.0 | 3.2 | 0.00 | 0.03 | 0.00 | 94 | 1020.1 |
| 20260506123728 | 11 | 227 | 0.0 | 3.2 | 0.00 | 0.03 | 0.00 | 94 | 1020.2 |
| 20260506123545 | 11 | 227 | 0.0 | 3.2 | 0.00 | 0.03 | 0.00 | 94 | 1020.1 |
| 20260506123209 | 11 | 227 | 1.6 | 3.2 | 0.00 | 0.03 | 0.00 | 94 | 1020.2 |
| 20260506123027 | 11 | 227 | 0.0 | 3.2 | 0.00 | 0.03 | 0.00 | 94 | 1020.0 |
| 20260506122710 | 11 | 227 | 1.6 | 3.2 | 0.00 | 0.03 | 0.00 | 94 | 1020.3 |
| 20260506122508 | 11 | 227 | 1.6 | 4.8 | 0.00 | 0.03 | 0.00 | 94 | 1020.1 |
| 20260506122219 | 11 | 242 | 1.6 | 4.8 | 0.00 | 0.03 | 0.00 | 94 | 1020.2 |
| 20260506122051 | 11 | 242 | 0.0 | 4.8 | 0.00 | 0.03 | 0.00 | 94 | 1020.1 |
| 20260506121721 | 11 | 242 | 1.6 | 4.8 | 0.00 | 0.03 | 0.00 | 94 | 1020.3 |
| 20260506121534 | 11 | 252 | 0.0 | 3.2 | 0.00 | 0.03 | 0.00 | 94 | 1020.1 |
| 20260506121229 | 11 | 252 | 1.6 | 3.2 | 0.00 | 0.03 | 0.00 | 94 | 1020.3 |
| 20260506121018 | 11 | 252 | 0.0 | 3.2 | 0.00 | 0.03 | 0.00 | 94 | 1020.2 |
| 20260506120711 | 11 | 252 | 1.6 | 3.2 | 0.00 | 0.03 | 0.00 | 94 | 1020.3 |
| 20260506120600 | 11 | 252 | 0.0 | 3.2 | 0.00 | 0.03 | 0.00 | 94 | 1020.1 |
| 20260506120232 | 11 | 252 | 0.0 | 0.0 | 0.00 | 0.03 | 0.00 | 94 | 1020.4 |
| 20260506120020 | 11 | 252 | 0.0 | 0.0 | 0.00 | 0.03 | 0.00 | 94 | 1020.2 |
| 20260506115741 | 11 | 252 | 0.0 | 0.0 | 0.00 | 0.03 | 0.00 | 94 | 1020.3 |
| 20260506115541 | 11 | 252 | 0.0 | 0.0 | 0.00 | 0.03 | 0.00 | 94 | 1020.1 |
| 20260506115248 | 11 | 252 | 0.0 | 0.0 | 0.00 | 0.03 | 0.00 | 94 | 1020.3 |
| 20260506115001 | 11 | 252 | 0.0 | 0.0 | 0.00 | 0.03 | 0.00 | 94 | 1020.2 |
| 20260506114749 | 11 | 252 | 0.0 | 0.0 | 0.00 | 0.03 | 0.00 | 94 | 1020.3 |
| 20260506114525 | 11 | 252 | 0.0 | 0.0 | 0.00 | 0.03 | 0.00 | 94 | 1020.1 |
| 20260506114237 | 11 | 252 | 0.0 | 0.0 | 0.00 | 0.03 | 0.00 | 93 | 1020.2 |
| 20260506114048 | 11 | 252 | 0.0 | 0.0 | 0.00 | 0.03 | 0.00 | 93 | 1020.0 |
| 20260506113745 | 11 | 252 | 0.0 | 1.6 | 0.00 | 0.03 | 0.00 | 93 | 1020.2 |
| 20260506113508 | 11 | 252 | 0.0 | 1.6 | 0.00 | 0.03 | 0.00 | 93 | 1020.0 |
| 20260506113225 | 11 | 252 | 0.0 | 1.6 | 0.00 | 0.03 | 0.00 | 93 | 1020.1 |
| 20260506113052 | 11 | 252 | 0.0 | 1.6 | 0.00 | 0.03 | 0.00 | 93 | 1019.9 |
| 20260506112726 | 11 | 252 | 0.0 | 3.2 | 0.00 | 0.03 | 0.00 | 93 | 1020.1 |
| 20260506112535 | 11 | 252 | 0.0 | 3.2 | 0.00 | 0.03 | 0.00 | 93 | 1020.0 |
| 20260506112235 | 11 | 252 | 0.0 | 3.2 | 0.00 | 0.03 | 0.00 | 93 | 1020.1 |
| 20260506112015 | 11 | 252 | 0.0 | 3.2 | 0.00 | 0.03 | 0.00 | 93 | 1019.9 |
| 20260506111736 | 11 | 252 | 1.6 | 3.2 | 0.00 | 0.03 | 0.00 | 93 | 1019.9 |
| 20260506111537 | 11 | 252 | 0.0 | 3.2 | 0.00 | 0.03 | 0.00 | 93 | 1019.8 |
| 20260506111217 | 11 | 252 | 0.0 | 3.2 | 0.00 | 0.03 | 0.00 | 93 | 1019.8 |
| 20260506111021 | 11 | 252 | 0.0 | 3.2 | 0.00 | 0.03 | 0.00 | 93 | 1019.8 |
| 20260506110725 | 12 | 252 | 0.0 | 1.6 | 0.00 | 0.03 | 0.00 | 93 | 1019.8 |
| 20260506110602 | 11 | 252 | 0.0 | 1.6 | 0.00 | 0.03 | 0.00 | 93 | 1019.7 |